createdAt,value
2023-03-17T00:00:18.964Z,99.34
2023-03-17T00:03:46.853Z,99.22
2023-03-17T00:07:14.901Z,98.83
2023-03-17T00:10:42.980Z,98.92
2023-03-17T00:14:11.031Z,98.49
2023-03-17T00:17:39.412Z,96.90
2023-03-17T00:21:07.299Z,96.59
2023-03-17T00:24:35.297Z,96.07
2023-03-17T00:28:03.098Z,96.34
2023-03-17T00:31:32.043Z,95.64
2023-03-17T00:34:59.894Z,95.40
2023-03-17T00:38:27.857Z,95.49
2023-03-17T00:41:55.788Z,95.24
2023-03-17T00:45:23.653Z,95.30
2023-03-17T00:48:13.873Z,95.79
2023-03-17T00:51:41.800Z,95.94
2023-03-17T00:55:10.183Z,95.30
2023-03-17T00:58:39.304Z,95.31
2023-03-17T01:02:07.360Z,95.86
2023-03-17T01:05:35.459Z,96.33
2023-03-17T01:09:03.253Z,96.72
2023-03-17T01:12:12.337Z,97.60
2023-03-17T01:15:40.155Z,98.16
2023-03-17T01:19:08.039Z,99.25
2023-03-17T01:22:36.052Z,99.45
2023-03-17T01:26:04.123Z,99.73
2023-03-17T01:29:33.091Z,98.59
2023-03-17T01:33:01.815Z,99.30
2023-03-17T01:36:29.548Z,98.44
2023-03-17T01:39:57.484Z,99.11
2023-03-17T01:43:25.449Z,99.52
2023-03-17T01:46:53.394Z,100.00
2023-03-17T01:50:21.232Z,100.00
2023-03-17T01:53:49.322Z,100.00
2023-03-17T01:57:17.168Z,100.00
2023-03-17T02:00:45.170Z,100.00
2023-03-17T02:03:54.196Z,100.00
2023-03-17T02:07:22.463Z,100.00
2023-03-17T02:10:50.332Z,100.00
2023-03-17T02:14:18.229Z,100.00
2023-03-17T02:17:46.086Z,100.00
2023-03-17T02:20:46.374Z,100.00
2023-03-17T02:24:14.408Z,100.00
2023-03-17T02:27:24.144Z,100.00
2023-03-17T02:30:53.930Z,100.00
2023-03-17T02:34:21.641Z,100.00
2023-03-17T02:37:49.317Z,100.00
2023-03-17T02:40:57.266Z,100.00
2023-03-17T02:44:25.382Z,100.00
2023-03-17T02:47:34.232Z,100.00
2023-03-17T02:51:02.317Z,100.00
2023-03-17T02:54:10.533Z,100.00
2023-03-17T02:57:38.413Z,100.00
2023-03-17T03:01:06.308Z,100.00
2023-03-17T03:04:34.168Z,100.00
2023-03-17T03:08:03.240Z,100.00
2023-03-17T03:10:53.636Z,100.00
2023-03-17T03:14:21.562Z,100.00
2023-03-17T03:17:30.364Z,100.00
2023-03-17T03:20:58.408Z,100.00
2023-03-17T03:24:26.202Z,100.00
2023-03-17T03:27:54.185Z,100.00
2023-03-17T03:31:22.093Z,100.00
2023-03-17T03:34:50.008Z,100.00
2023-03-17T03:38:17.769Z,100.00
2023-03-17T03:41:45.698Z,100.00
2023-03-17T03:45:14.073Z,100.00
2023-03-17T03:48:42.297Z,100.00
2023-03-17T03:52:10.201Z,100.00
2023-03-17T03:55:38.043Z,100.00
2023-03-17T03:59:06.151Z,100.00
2023-03-17T04:02:34.029Z,100.00
2023-03-17T04:06:01.922Z,100.00
2023-03-17T04:09:29.962Z,100.00
2023-03-17T04:12:58.865Z,100.00
2023-03-17T04:16:26.695Z,100.00
2023-03-17T04:19:35.585Z,100.00
2023-03-17T04:23:03.585Z,100.00
2023-03-17T04:26:31.332Z,100.00
2023-03-17T04:29:40.479Z,100.00
2023-03-17T04:33:08.393Z,100.00
2023-03-17T04:36:36.103Z,100.00
2023-03-17T04:40:03.985Z,100.00
2023-03-17T04:43:32.446Z,100.00
2023-03-17T04:47:00.353Z,100.00
2023-03-17T04:50:28.285Z,100.00
2023-03-17T04:53:56.114Z,100.00
2023-03-17T04:57:25.057Z,100.00
2023-03-17T05:00:33.775Z,100.00
2023-03-17T05:04:02.803Z,100.00
2023-03-17T05:07:11.457Z,100.00
2023-03-17T05:10:20.338Z,100.00
2023-03-17T05:13:48.144Z,100.00
2023-03-17T05:17:16.864Z,100.00
2023-03-17T05:20:25.177Z,100.00
2023-03-17T05:23:54.970Z,100.00
2023-03-17T05:27:22.059Z,100.00
2023-03-17T05:30:49.961Z,100.00
2023-03-17T05:34:17.809Z,100.00
2023-03-17T05:37:45.746Z,100.00
2023-03-17T05:41:13.714Z,100.00
2023-03-17T05:44:21.879Z,100.00
2023-03-17T05:47:49.614Z,100.00
2023-03-17T05:51:17.408Z,100.00
2023-03-17T05:54:45.935Z,100.00
2023-03-17T05:58:13.766Z,100.00
2023-03-17T06:01:41.666Z,100.00
2023-03-17T06:05:09.926Z,100.00
2023-03-17T06:08:37.726Z,100.00
2023-03-17T06:12:05.606Z,100.00
2023-03-17T06:15:35.021Z,100.00
2023-03-17T06:18:43.408Z,100.00
2023-03-17T06:22:11.322Z,99.55
2023-03-17T06:25:39.209Z,97.72
2023-03-17T06:28:47.303Z,95.57
2023-03-17T06:31:36.411Z,94.91
2023-03-17T06:34:26.040Z,94.08
2023-03-17T06:37:54.039Z,93.25
2023-03-17T06:41:21.805Z,91.73
2023-03-17T06:44:49.665Z,89.54
2023-03-17T06:48:17.686Z,88.98
2023-03-17T06:51:45.717Z,89.28
2023-03-17T06:55:13.473Z,90.28
2023-03-17T06:58:41.241Z,88.73
2023-03-17T07:02:09.232Z,84.76
2023-03-17T07:05:37.215Z,84.70
2023-03-17T07:09:05.382Z,81.22
2023-03-17T07:12:33.394Z,80.86
2023-03-17T07:16:01.644Z,80.71
2023-03-17T07:19:29.627Z,79.73
2023-03-17T07:22:57.619Z,80.74
2023-03-17T07:26:26.010Z,78.56
2023-03-17T07:29:53.950Z,78.88
2023-03-17T07:33:21.886Z,82.72
2023-03-17T07:36:49.941Z,78.02
2023-03-17T07:40:18.050Z,78.09
2023-03-17T07:43:45.931Z,76.29
2023-03-17T07:47:13.790Z,76.29
2023-03-17T07:50:41.857Z,77.56
2023-03-17T07:54:09.882Z,77.99
2023-03-17T07:57:17.991Z,79.50
2023-03-17T08:00:45.857Z,78.39
2023-03-17T08:04:13.842Z,78.72
2023-03-17T08:07:41.593Z,78.39
2023-03-17T08:11:09.938Z,77.78
2023-03-17T08:14:38.010Z,75.52
2023-03-17T08:18:05.937Z,73.34
2023-03-17T08:21:33.887Z,78.28
2023-03-17T08:25:01.892Z,73.10
2023-03-17T08:28:30.020Z,73.51
2023-03-17T08:31:58.563Z,70.98
2023-03-17T08:35:06.376Z,70.64
2023-03-17T08:38:34.603Z,75.42
2023-03-17T08:42:02.703Z,72.76
2023-03-17T08:45:30.960Z,74.27
2023-03-17T08:48:58.871Z,67.74
2023-03-17T08:52:26.686Z,66.62
2023-03-17T08:55:35.543Z,67.85
2023-03-17T08:59:03.452Z,67.29
2023-03-17T09:02:31.244Z,65.66
2023-03-17T09:05:59.580Z,67.35
2023-03-17T09:09:28.267Z,63.14
2023-03-17T09:12:57.859Z,61.21
2023-03-17T09:16:06.875Z,60.78
2023-03-17T09:19:35.110Z,58.57
2023-03-17T09:23:02.989Z,58.71
2023-03-17T09:25:52.534Z,56.84
2023-03-17T09:29:20.566Z,58.10
2023-03-17T09:32:11.846Z,57.64
2023-03-17T09:34:59.582Z,55.53
2023-03-17T09:38:27.780Z,56.26
2023-03-17T09:41:55.501Z,55.55
2023-03-17T09:45:23.467Z,54.91
2023-03-17T09:48:51.500Z,55.20
2023-03-17T09:52:20.158Z,55.57
2023-03-17T09:55:08.549Z,55.78
2023-03-17T09:58:36.443Z,53.19
2023-03-17T10:02:05.094Z,53.36
2023-03-17T10:05:34.584Z,52.64
2023-03-17T10:08:42.575Z,51.61
2023-03-17T10:11:33.224Z,50.82
2023-03-17T10:14:42.566Z,50.59
2023-03-17T10:18:11.802Z,52.24
2023-03-17T10:21:20.150Z,51.34
2023-03-17T10:24:48.653Z,51.45
2023-03-17T10:28:16.558Z,52.57
2023-03-17T10:31:44.351Z,53.75
2023-03-17T10:35:12.502Z,54.08
2023-03-17T10:38:40.588Z,55.83
2023-03-17T10:41:29.282Z,56.31
2023-03-17T10:44:57.131Z,59.84
2023-03-17T10:48:25.186Z,59.74
2023-03-17T10:51:14.132Z,59.88
2023-03-17T10:54:42.078Z,60.86
2023-03-17T10:58:10.141Z,59.72
2023-03-17T11:01:38.082Z,58.14
2023-03-17T11:04:47.025Z,55.65
2023-03-17T11:08:16.042Z,54.58
2023-03-17T11:11:43.786Z,50.60
2023-03-17T11:15:11.586Z,50.10
2023-03-17T11:18:39.677Z,49.03
2023-03-17T11:22:07.463Z,47.78
2023-03-17T11:25:36.463Z,48.44
2023-03-17T11:29:04.910Z,46.41
2023-03-17T11:32:32.802Z,44.91
2023-03-17T11:36:00.805Z,44.53
2023-03-17T11:39:11.343Z,43.59
2023-03-17T11:42:39.316Z,44.48
2023-03-17T11:46:07.122Z,44.93
2023-03-17T11:49:35.121Z,44.91
2023-03-17T11:53:03.376Z,45.21
2023-03-17T11:56:31.364Z,43.68
2023-03-17T11:59:39.564Z,43.44
2023-03-17T12:03:07.720Z,43.35
2023-03-17T12:06:35.617Z,43.43
2023-03-17T12:10:03.635Z,42.54
2023-03-17T12:13:31.672Z,42.76
2023-03-17T12:16:59.925Z,42.62
2023-03-17T12:20:28.108Z,42.90
2023-03-17T12:23:37.756Z,43.83
2023-03-17T12:27:05.716Z,41.82
2023-03-17T12:30:33.895Z,41.18
2023-03-17T12:34:01.920Z,41.27
2023-03-17T12:37:29.900Z,41.64
2023-03-17T12:40:57.989Z,41.30
2023-03-17T12:44:26.590Z,41.46
2023-03-17T12:47:54.704Z,41.59
2023-03-17T12:51:23.203Z,42.18
2023-03-17T12:54:31.983Z,41.58
2023-03-17T12:57:40.582Z,41.80
2023-03-17T13:01:08.440Z,42.31
2023-03-17T13:04:36.362Z,42.97
2023-03-17T13:08:04.329Z,41.30
2023-03-17T13:11:32.245Z,39.60
2023-03-17T13:15:00.161Z,39.14
2023-03-17T13:17:50.172Z,39.18
2023-03-17T13:20:58.719Z,38.78
2023-03-17T13:24:07.162Z,37.69
2023-03-17T13:27:15.156Z,36.57
2023-03-17T13:30:04.709Z,36.95
2023-03-17T13:33:34.120Z,35.99
2023-03-17T13:36:42.961Z,35.03
2023-03-17T13:40:11.362Z,34.50
2023-03-17T13:43:39.237Z,34.41
2023-03-17T13:46:10.093Z,33.40
2023-03-17T13:49:38.242Z,33.79
2023-03-17T13:52:26.279Z,33.71
2023-03-17T13:55:35.073Z,33.68
2023-03-17T13:58:24.383Z,33.75
2023-03-17T14:01:53.248Z,33.01
2023-03-17T14:05:21.241Z,32.28
2023-03-17T14:07:50.404Z,31.58
2023-03-17T14:11:19.028Z,31.45
2023-03-17T14:14:47.417Z,31.34
2023-03-17T14:17:56.221Z,31.40
2023-03-17T14:20:26.030Z,31.34
2023-03-17T14:23:34.916Z,30.96
2023-03-17T14:27:03.259Z,31.16
2023-03-17T14:30:20.296Z,30.71
2023-03-17T14:33:09.630Z,30.60
2023-03-17T14:36:37.477Z,30.45
2023-03-17T14:40:05.395Z,30.35
2023-03-17T14:43:34.492Z,30.55
2023-03-17T14:46:58.441Z,29.80
2023-03-17T14:49:47.136Z,29.58
2023-03-17T14:53:15.045Z,28.96
2023-03-17T14:56:43.013Z,29.58
2023-03-17T14:59:31.843Z,29.16
2023-03-17T15:02:59.777Z,29.02
2023-03-17T15:05:27.971Z,29.38
2023-03-17T15:08:56.050Z,29.45
2023-03-17T15:11:25.171Z,29.24
2023-03-17T15:14:53.258Z,28.80
2023-03-17T15:18:21.344Z,30.04
2023-03-17T15:21:32.561Z,29.66
2023-03-17T15:24:20.688Z,29.47
2023-03-17T15:27:48.631Z,29.59
2023-03-17T15:30:57.026Z,30.64
2023-03-17T15:34:24.763Z,31.57
2023-03-17T15:37:52.541Z,32.62
2023-03-17T15:41:20.607Z,33.23
2023-03-17T15:44:48.503Z,32.53
2023-03-17T15:47:58.274Z,31.97
2023-03-17T15:51:26.243Z,32.44
2023-03-17T15:54:54.633Z,32.87
2023-03-17T15:58:02.771Z,33.35
2023-03-17T16:01:31.010Z,33.92
2023-03-17T16:04:20.467Z,34.93
2023-03-17T16:07:29.562Z,35.34
2023-03-17T16:10:39.835Z,35.80
2023-03-17T16:13:48.205Z,36.23
2023-03-17T16:16:56.814Z,36.54
2023-03-17T16:20:24.640Z,37.36
2023-03-17T16:23:52.721Z,38.14
2023-03-17T16:27:21.560Z,39.48
2023-03-17T16:30:49.744Z,40.52
2023-03-17T16:34:17.601Z,41.39
2023-03-17T16:37:45.761Z,43.20
2023-03-17T16:41:13.709Z,44.26
2023-03-17T16:44:21.599Z,45.15
2023-03-17T16:47:31.363Z,46.31
2023-03-17T16:50:59.275Z,46.93
2023-03-17T16:54:27.185Z,47.86
2023-03-17T16:57:55.320Z,48.09
2023-03-17T17:01:23.410Z,48.43
2023-03-17T17:04:51.236Z,49.62
2023-03-17T17:08:19.106Z,49.23
2023-03-17T17:11:47.068Z,50.31
2023-03-17T17:15:14.902Z,50.27
2023-03-17T17:18:43.001Z,50.46
2023-03-17T17:22:11.039Z,50.28
2023-03-17T17:25:39.065Z,50.88
2023-03-17T17:29:07.292Z,51.09
2023-03-17T17:32:34.979Z,51.11
2023-03-17T17:36:03.215Z,51.90
2023-03-17T17:39:31.024Z,51.71
2023-03-17T17:42:58.895Z,51.67
2023-03-17T17:46:26.696Z,52.47
2023-03-17T17:49:35.634Z,52.66
2023-03-17T17:53:04.675Z,53.21
2023-03-17T17:56:33.000Z,53.20
2023-03-17T18:00:01.174Z,55.04
2023-03-17T18:03:31.932Z,54.18
2023-03-17T18:06:57.696Z,54.24
2023-03-17T18:10:25.553Z,54.40
2023-03-17T18:13:14.750Z,54.29
2023-03-17T18:16:42.877Z,54.55
2023-03-17T18:19:51.482Z,54.71
2023-03-17T18:23:00.422Z,54.79
2023-03-17T18:26:28.513Z,55.44
2023-03-17T18:29:56.629Z,56.17
2023-03-17T18:33:24.889Z,56.28
2023-03-17T18:36:52.857Z,56.72
2023-03-17T18:40:21.128Z,57.37
2023-03-17T18:43:48.944Z,57.26
2023-03-17T18:47:17.438Z,57.37
2023-03-17T18:50:46.514Z,57.12
2023-03-17T18:54:14.674Z,58.18
2023-03-17T18:57:23.573Z,58.16
2023-03-17T19:00:51.630Z,58.60
2023-03-17T19:04:19.806Z,59.19
2023-03-17T19:07:29.001Z,59.66
2023-03-17T19:10:57.112Z,59.65
2023-03-17T19:14:25.508Z,59.91
2023-03-17T19:17:53.787Z,60.00
2023-03-17T19:21:22.231Z,60.61
2023-03-17T19:24:50.323Z,60.94
2023-03-17T19:28:18.316Z,60.82
2023-03-17T19:31:48.477Z,61.10
2023-03-17T19:35:14.319Z,61.15
2023-03-17T19:38:24.526Z,61.11
2023-03-17T19:41:53.144Z,61.15
2023-03-17T19:45:21.299Z,61.22
2023-03-17T19:48:49.280Z,61.04
2023-03-17T19:52:17.196Z,60.97
2023-03-17T19:55:45.329Z,60.99
2023-03-17T19:59:13.252Z,60.86
2023-03-17T20:02:41.281Z,59.98
2023-03-17T20:06:10.419Z,59.50
2023-03-17T20:09:38.314Z,59.16
2023-03-17T20:13:07.801Z,58.83
2023-03-17T20:16:36.781Z,57.50
2023-03-17T20:20:04.682Z,57.08
2023-03-17T20:23:12.988Z,56.19
2023-03-17T20:26:40.896Z,56.42
2023-03-17T20:30:08.876Z,56.57
2023-03-17T20:33:37.263Z,55.95
2023-03-17T20:37:05.347Z,55.96
2023-03-17T20:40:33.802Z,56.39
2023-03-17T20:44:02.292Z,57.16
2023-03-17T20:47:30.714Z,57.05
2023-03-17T20:50:58.978Z,56.82
2023-03-17T20:54:26.900Z,60.27
2023-03-17T20:57:54.864Z,60.70
2023-03-17T21:01:23.144Z,59.88
2023-03-17T21:04:51.164Z,60.20
2023-03-17T21:08:19.329Z,59.22
2023-03-17T21:11:47.318Z,58.80
2023-03-17T21:15:15.400Z,61.36
2023-03-17T21:18:43.642Z,62.20
2023-03-17T21:22:11.660Z,60.71
2023-03-17T21:25:39.671Z,61.02
2023-03-17T21:28:49.395Z,60.94
2023-03-17T21:32:17.786Z,61.56
2023-03-17T21:35:45.829Z,61.87
2023-03-17T21:39:14.516Z,62.55
2023-03-17T21:42:42.599Z,63.68
2023-03-17T21:46:10.590Z,63.67
2023-03-17T21:49:38.576Z,64.57
2023-03-17T21:53:06.479Z,65.26
2023-03-17T21:56:34.741Z,65.50
2023-03-17T22:00:02.894Z,66.13
2023-03-17T22:03:30.941Z,66.71
2023-03-17T22:06:59.138Z,67.39
2023-03-17T22:10:27.302Z,67.95
2023-03-17T22:13:55.289Z,67.22
2023-03-17T22:17:04.250Z,68.48
2023-03-17T22:20:13.160Z,68.13
2023-03-17T22:23:41.209Z,68.61
2023-03-17T22:27:09.370Z,69.57
2023-03-17T22:30:37.349Z,69.52
2023-03-17T22:34:05.783Z,69.72
2023-03-17T22:37:33.614Z,69.59
2023-03-17T22:41:01.559Z,70.67
2023-03-17T22:44:29.666Z,70.58
2023-03-17T22:47:57.610Z,70.88
2023-03-17T22:51:25.704Z,70.82
2023-03-17T22:54:53.664Z,72.09
2023-03-17T22:57:42.897Z,72.28
2023-03-17T23:01:11.048Z,69.73
2023-03-17T23:04:38.895Z,72.39
2023-03-17T23:08:06.866Z,73.26
2023-03-17T23:11:23.262Z,70.71
2023-03-17T23:14:39.470Z,72.39
2023-03-17T23:17:36.973Z,77.54
2023-03-17T23:21:05.050Z,79.54
2023-03-17T23:24:13.347Z,79.31
2023-03-17T23:27:41.399Z,80.18
2023-03-17T23:30:50.606Z,80.18
2023-03-17T23:33:59.190Z,79.67
2023-03-17T23:37:27.125Z,80.88
2023-03-17T23:40:55.032Z,80.92
2023-03-17T23:44:22.996Z,81.07
2023-03-17T23:47:51.103Z,84.67
2023-03-17T23:51:19.082Z,83.04
2023-03-17T23:54:46.960Z,82.82
2023-03-17T23:58:15.903Z,86.30
